Station: Larapuna (Eddystone Point)  

  Atmospheric Gas Attenuation - ITU Rec 676-11   ----------------- dB/100km -----------------
Date Time Temp RH % AH g/m3 Dew Point Wind Direction Speed kph Gust kph Barometer mB Rainfall Since 9am 24GHz 47GHz 76GHz 122GHz 134GHz 241GHz
08/05 12:30 14.7 55 6.92 5.8 13 17 1014.7 0.2 16.0 23.1 33.0 86.2 76.1 260.5
08/05 12:20 15.1 54 6.97 5.9 19 20 1014.5 0.2 16.1 23.0 33.0 86.2 76.3 261.3
08/05 12:10 15.9 51 6.91 5.8 17 20 1014.6 0.2 15.9 22.8 32.4 84.8 74.8 256.2
08/05 12:00 17.3 49 7.22 6.5 13 17 1014.8 0.2 16.5 22.9 33.0 86.3 77.2 264.8
08/05 11:50 17.4 49 7.26 6.6 13 15 1014.7 0.2 16.6 22.9 33.1 86.6 77.6 266.1
08/05 11:40 15.8 49 6.6 5.1 7 9 1014.7 0 15.3 22.3 31.4 81.9 71.2 243.5
08/05 11:30 16.9 50 7.19 6.4 9 11 1014.5 0 16.5 22.9 33.1 86.4 77.3 264.8
08/05 11:20 16 51 6.95 5.9 7 9 1014.5 0 16.0 22.8 32.5 85.1 75.2 257.6
08/05 11:10 15.7 51 6.82 5.6 11 13 1014.4 0 15.7 22.7 32.2 84.1 73.9 253.0
08/05 11:00 16.9 52 7.48 7 13 17 1014.3 0 17.1 23.3 34.1 89.3 80.7 277.0
08/05 10:50 15.9 53 7.18 6.3 11 13 1014.3 0 16.5 23.2 33.4 87.4 78.1 267.6
08/05 10:40 15.8 54 7.27 6.5 17 19 1014.3 0 16.7 23.3 33.8 88.4 79.3 271.8
08/05 10:30 15.3 54 7.05 6.1 7 13 1014.3 0 16.2 23.1 33.2 86.8 77.1 264.1
08/05 10:20 16.2 54 7.45 6.9 11 13 1014 0 17.0 23.5 34.3 89.7 81.1 278.1
08/05 10:10 15.9 54 7.31 6.6 13 15 1013.8 0 16.8 23.3 33.9 88.7 79.7 273.1
08/05 10:00 16.1 57 7.81 7.6 15 19 1013.6 0 17.8 24.0 35.7 93.4 85.6 293.9
08/05 09:50 15.6 53 7.05 6.1 13 15 1013.6 0 16.2 23.0 33.0 86.4 76.8 262.9
08/05 09:40 14.7 55 6.92 5.8 17 19 1013.2 0 16.0 23.0 32.9 86.0 76.0 260.2
08/05 09:30 14.7 55 6.92 5.8 19 24 1013 0 16.0 23.0 32.9 86.0 76.0 260.1
08/05 09:20 13.7 63 7.46 6.8 11 13 1013 0 17.2 24.1 35.4 92.6 83.7 287.2
08/05 09:10 13.5 62 7.25 6.4 15 17 1012.8 0 16.7 23.8 34.6 90.6 81.3 278.5
08/05 09:00 14.2 60 7.33 6.6 11 15 1012.6 0 16.9 23.8 34.6 90.6 81.6 279.5
08/05 08:50 14 61 7.36 6.6 11 13 1012.4 0.8 16.9 23.8 34.8 91.2 82.1 281.5
08/05 08:40 13.5 62 7.25 6.4 6 6 1012.2 0.8 16.7 23.8 34.6 90.6 81.2 278.4
08/05 08:30 12.8 63 7.06 5.9 7 15 1012 0.8 16.3 23.7 34.2 89.4 79.6 272.4
08/05 08:20 11.9 70 7.41 6.6 11 11 1011.7 0.8 17.1 24.5 35.9 94.1 85.0 291.2
08/05 08:10 10.9 74 7.36 6.5 13 13 1011.5 0.8 17.1 24.7 36.1 94.7 85.4 292.5
08/05 08:00 10.4 75 7.23 6.2 17 20 1011.4 0.8 16.8 24.6 35.9 93.9 84.2 288.4
08/05 07:50 9.8 79 7.33 6.3 15 17 1011.1 0.8 17.1 24.9 36.5 95.7 86.2 295.2
08/05 07:40 9.4 80 7.24 6.1 19 20 1010.9 0.8 16.9 24.9 36.3 95.2 85.4 292.4
08/05 07:30 9 81 7.14 5.9 20 26 1010.7 0.8 16.7 24.8 36.1 94.6 84.5 289.2
08/05 07:20 8.3 84 7.08 5.8 19 20 1010.6 0.8 16.6 24.9 36.2 94.7 84.4 288.9
08/05 07:10 8.2 83 6.95 5.5 19 20 1010.3 0.8 16.3 24.7 35.7 93.4 82.8 283.1
08/05 07:00 8.3 82 6.91 5.4 15 20 1010.1 0.8 16.2 24.6 35.5 92.8 82.1 280.8
08/05 06:50 9.2 83 7.41 6.5 11 13 1009.9 0.8 17.3 25.1 37.1 97.2 87.8 300.9
08/05 06:40 9.4 83 7.51 6.7 17 17 1009.7 0.8 17.5 25.2 37.4 98.0 88.9 304.8
08/05 06:30 9.1 83 7.37 6.4 15 20 1009.5 0.8 17.2 25.1 36.9 96.8 87.4 299.3
08/05 06:20 9.2 81 7.24 6.1 19 20 1009.3 0.8 16.9 24.8 36.3 95.3 85.5 292.8
08/05 06:10 9.1 82 7.28 6.2 24 28 1009 0.8 17.0 24.9 36.5 95.8 86.1 294.9
08/05 06:00 9 83 7.32 6.3 20 26 1008.9 0.8 17.1 25.0 36.7 96.3 86.8 297.2
08/05 05:50 9 83 7.32 6.3 22 26 1008.6 0.8 17.1 25.0 36.7 96.3 86.7 297.1
08/05 05:40 9.1 83 7.37 6.4 22 24 1008.4 0.8 17.2 25.1 36.9 96.7 87.3 299.0
08/05 05:30 9.4 83 7.51 6.7 22 28 1008.2 0.8 17.5 25.2 37.3 97.8 88.8 304.4
08/05 05:20 9.6 84 7.7 7 26 28 1008 0.8 17.9 25.4 38.0 99.6 91.1 312.5
08/05 05:10 9.8 84 7.8 7.2 22 26 1007.9 0.8 18.1 25.5 38.3 100.5 92.2 316.4
08/05 05:00 9.9 84 7.85 7.3 22 30 1007.7 0.8 18.2 25.6 38.4 100.8 92.8 318.3
08/05 04:50 9.6 85 7.79 7.2 22 28 1007.7 0.8 18.1 25.6 38.3 100.6 92.3 316.7
08/05 04:40 9.6 85 7.79 7.2 20 24 1007.5 0.8 18.1 25.6 38.3 100.6 92.3 316.6
08/05 04:30 9.5 86 7.83 7.3 22 26 1007.4 0.8 18.1 25.7 38.5 101.1 92.9 318.9
08/05 04:20 9.5 86 7.83 7.3 20 24 1007.1 0.8 18.1 25.6 38.5 101.1 92.9 318.8
08/05 04:10 9.5 86 7.83 7.3 24 26 1007 0.8 18.1 25.6 38.5 101.1 92.9 318.8
08/05 04:00 9.4 87 7.87 7.3 24 28 1006.8 0.8 18.2 25.7 38.7 101.6 93.6 321.0
08/05 03:50 9.5 87 7.92 7.4 22 26 1006.8 0.8 18.3 25.8 38.9 102.0 94.1 323.0
08/05 03:40 9.6 87 7.97 7.5 24 26 1006.7 0.8 18.4 25.8 39.0 102.5 94.7 325.0
08/05 03:30 9.7 86 7.93 7.5 22 28 1006.7 0.8 18.4 25.7 38.8 101.9 94.0 322.6
08/05 03:20 9.8 86 7.98 7.6 24 28 1006.6 0.8 18.5 25.8 39.0 102.3 94.6 324.6
08/05 03:10 9.9 85 7.94 7.5 26 32 1006.4 0.8 18.4 25.7 38.7 101.7 93.9 322.2
08/05 03:00 10 86 8.08 7.8 28 35 1006.4 0.8 18.7 25.9 39.3 103.1 95.6 328.4
08/05 02:50 9.9 85 7.94 7.5 26 28 1006.4 0.8 18.4 25.7 38.7 101.7 93.9 322.2
08/05 02:40 10.2 84 8 7.6 24 28 1006.2 0.8 18.5 25.7 38.8 101.9 94.3 323.7
08/05 02:30 10.4 84 8.1 7.8 24 33 1006.2 0.8 18.7 25.8 39.1 102.8 95.4 327.6
08/05 02:20 10.3 84 8.05 7.7 26 28 1006.4 0.8 18.6 25.8 39.0 102.4 94.9 325.8
08/05 02:10 10.2 84 8 7.6 24 28 1006.3 0.8 18.5 25.7 38.8 102.0 94.3 323.8
08/05 02:00 10.3 84 8.05 7.7 28 35 1006.1 0.8 18.6 25.7 39.0 102.4 94.8 325.7
08/05 01:50 10.4 84 8.1 7.8 28 32 1006.1 0.8 18.7 25.8 39.1 102.8 95.4 327.6
08/05 01:40 9.8 85 7.89 7.4 26 30 1006.4 0.8 18.3 25.6 38.6 101.3 93.3 320.2
08/05 01:30 10.1 84 7.95 7.5 7 15 1006.7 0.8 18.4 25.7 38.7 101.6 93.8 321.9
08/05 01:20 10.1 85 8.04 7.7 4 6 1006.8 0.8 18.6 25.8 39.1 102.6 95.0 326.2
08/05 01:10 10 85 7.99 7.6 7 7 1006.8 0.8 18.5 25.8 38.9 102.2 94.5 324.3
08/05 01:00 10 85 7.99 7.6 7 13 1007 0.8 18.5 25.8 38.9 102.2 94.5 324.3
08/05 00:50 10.1 85 8.04 7.7 11 13 1007.1 0.8 18.6 25.8 39.1 102.6 95.0 326.3
08/05 00:40 10.2 85 8.09 7.8 9 9 1007.1 0.8 18.7 25.9 39.2 103.0 95.6 328.3
08/05 00:30 10.3 85 8.14 7.9 17 30 1007 0.8 18.8 25.9 39.4 103.4 96.1 330.2
08/05 00:20 10.4 85 8.19 8 13 17 1007 0.8 18.9 26.0 39.6 103.9 96.7 332.1
08/05 00:10 10.3 85 8.14 7.9 13 17 1007.1 0.8 18.8 25.9 39.4 103.4 96.1 330.2
08/05 00:00 10.6 85 8.3 8.2 19 26 1007.1 0.8 19.1 26.1 39.9 104.8 97.9 336.5
07/05 23:50 10.5 86 8.34 8.3 20 24 1007.3 0.8 19.2 26.2 40.1 105.4 98.6 338.9
07/05 23:40 10.4 86 8.29 8.2 17 20 1007.5 0.8 19.1 26.2 40.0 105.0 98.1 337.0
07/05 23:30 10.3 87 8.33 8.2 19 26 1007.6 0.8 19.2 26.3 40.2 105.6 98.8 339.4
07/05 23:20 10.3 87 8.33 8.2 22 28 1007.8 0.8 19.2 26.3 40.2 105.6 98.8 339.5
07/05 23:10 10.2 87 8.28 8.1 22 30 1007.8 0.8 19.1 26.2 40.1 105.2 98.2 337.5
07/05 23:00 10 87 8.18 7.9 24 35 1007.8 0.8 18.9 26.1 39.7 104.4 97.1 333.6
07/05 22:50 10 86 8.08 7.8 28 33 1007.8 0.8 18.7 25.9 39.3 103.3 95.8 328.8
07/05 22:40 9.9 86 8.03 7.7 32 41 1007.9 0.8 18.6 25.9 39.2 102.8 95.2 326.9
07/05 22:30 9.3 87 7.82 7.3 20 30 1008.2 0.8 18.1 25.7 38.6 101.3 93.1 319.4
07/05 22:20 9 86 7.58 6.8 19 22 1008.3 0.8 17.6 25.4 37.8 99.1 90.2 309.3
07/05 22:10 8.7 86 7.44 6.5 22 24 1008.6 0.8 17.3 25.3 37.4 98.0 88.7 303.9
07/05 22:00 8.1 85 7.08 5.7 9 15 1009 0.8 16.6 24.9 36.2 94.8 84.6 289.3
07/05 21:50 7.9 84 6.9 5.4 9 11 1009.4 0.8 16.2 24.7 35.6 93.1 82.4 281.6
07/05 21:40 8.1 83 6.91 5.4 13 15 1009.7 0.8 16.2 24.6 35.5 93.0 82.3 281.5
07/05 21:30 8.3 83 7 5.6 11 19 1009.7 0.8 16.4 24.7 35.8 93.8 83.3 285.0
07/05 21:20 8.4 82 6.96 5.5 13 17 1010.1 0.8 16.3 24.6 35.6 93.3 82.7 282.8
07/05 21:10 8.8 81 7.05 5.7 15 17 1010.3 0.8 16.5 24.7 35.8 93.8 83.5 285.6
07/05 21:00 9.1 83 7.37 6.4 26 35 1010 0.8 17.2 25.1 37.0 96.9 87.4 299.4
07/05 20:50 8.5 82 7 5.6 30 35 1010.6 0.8 16.4 24.7 35.8 93.6 83.2 284.4
07/05 20:40 8.5 82 7 5.6 22 28 1010.8 0.8 16.4 24.7 35.8 93.7 83.2 284.5
07/05 20:30 7.9 80 6.57 4.7 17 26 1011.3 0.8 15.5 24.2 34.3 89.8 78.1 266.7
07/05 20:20 8.1 78 6.49 4.5 15 19 1011.6 0.8 15.3 24.0 33.9 88.7 76.9 262.4
07/05 20:10 8 77 6.37 4.2 13 15 1012.1 0.8 15.1 23.9 33.5 87.6 75.4 257.3
07/05 20:00 7.9 78 6.41 4.3 17 22 1012.1 0.8 15.2 24.0 33.7 88.1 76.1 259.5

Last Refresh: 08-May-2026 12:07:36

Bureau of Meteorology